Time;durP1;ratioP1;P1;durP2;ratioP2;P2;SDS_P1;SDS_P2;PMS_P1;PMS_P2;Temp;Humidity;BMP_temperature;BMP_pressure;BME280_temperature;BME280_humidity;BME280_pressure;Samples;Min_cycle;Max_cycle;Signal;HPM_P1;HPM_P2
2022/05/16 00:06:59;;;;;;;6.17;2.10;;;;;;;14.33;71.58;100120.69;31342254;28;20071;-73
2022/05/16 00:22:01;;;;;;;2.93;1.90;;;;;;;14.13;71.88;100122.94;31349286;28;20506;-72
2022/05/16 00:37:03;;;;;;;5.47;3.13;;;;;;;14.04;71.05;100128.31;31346232;28;20044;-72
2022/05/16 00:52:13;;;;;;;5.80;2.40;;;;;;;13.82;71.80;100123.56;31360708;28;20055;-74
2022/05/16 01:07:23;;;;;;;6.60;2.30;;;;;;;13.58;71.23;100136.03;31324876;28;20037;-73
2022/05/16 01:22:33;;;;;;;4.43;2.07;;;;;;;13.32;72.35;100124.34;31348844;28;20053;-73
2022/05/16 01:52:56;;;;;;;4.83;2.20;;;;;;;13.21;71.29;100140.28;31327637;28;20058;-73
2022/05/16 02:07:58;;;;;;;7.50;2.50;;;;;;;13.17;70.23;100156.75;31344513;28;20052;-72
2022/05/16 02:38:28;;;;;;;6.17;2.73;;;;;;;13.13;70.61;100177.84;31329463;28;20537;-73
2022/05/16 02:53:30;;;;;;;5.13;1.97;;;;;;;13.37;69.54;100191.22;31362960;28;20057;-73
2022/05/16 03:08:32;;;;;;;6.33;2.93;;;;;;;13.68;68.90;100210.56;31356820;28;20159;-74
2022/05/16 03:23:34;;;;;;;6.43;2.47;;;;;;;13.82;68.43;100227.25;31328633;28;20055;-74
2022/05/16 03:53:56;;;;;;;6.23;2.40;;;;;;;14.35;67.76;100257.53;31349684;28;20053;-73
2022/05/16 04:08:59;;;;;;;4.20;2.00;;;;;;;14.73;67.38;100270.34;31331250;28;20407;-74
2022/05/16 04:24:01;;;;;;;4.60;2.40;;;;;;;15.06;67.06;100277.00;31352174;28;20515;-73
2022/05/16 04:39:03;;;;;;;8.70;2.90;;;;;;;15.56;65.55;100291.66;31329404;28;20078;-74
2022/05/16 04:54:06;;;;;;;6.10;2.50;;;;;;;16.05;62.83;100299.19;31356252;28;20057;-72
2022/05/16 05:09:08;;;;;;;7.57;2.15;;;;;;;16.43;57.93;100302.34;31344730;28;20041;-74
2022/05/16 05:24:10;;;;;;;6.53;2.42;;;;;;;17.04;55.94;100328.03;31371662;28;20049;-74
2022/05/16 05:39:16;;;;;;;4.90;2.40;;;;;;;17.39;53.19;100340.22;31345184;28;20057;-75
2022/05/16 05:54:18;;;;;;;4.55;1.60;;;;;;;17.89;49.56;100340.75;31366410;28;20048;-74
2022/05/16 06:09:20;;;;;;;68.38;12.00;;;;;;;18.31;47.51;100327.00;31336425;28;20049;-73
2022/05/16 06:39:45;;;;;;;2.05;1.05;;;;;;;19.35;43.54;100328.88;31319135;28;20045;-72
2022/05/16 06:54:47;;;;;;;4.27;0.80;;;;;;;19.97;42.37;100333.44;31331094;28;20053;-73
2022/05/16 07:09:49;;;;;;;1.30;0.77;;;;;;;20.46;40.01;100345.72;31325229;28;20045;-72
2022/05/16 07:24:53;;;;;;;2.38;1.17;;;;;;;20.81;38.79;100366.97;31317451;28;20053;-73
2022/05/16 07:39:55;;;;;;;7.72;1.45;;;;;;;21.10;36.64;100364.09;31327141;28;20060;-73
2022/05/16 07:54:58;;;;;;;;;;;;;;;21.71;36.20;100369.53;31318687;28;20045;-73
2022/05/16 08:25:21;;;;;;;1.88;0.90;;;;;;;22.91;33.09;100366.59;31344445;28;20049;-69
2022/05/16 08:40:32;;;;;;;;;;;;;;;23.08;32.24;100372.19;31331143;28;20060;-78
2022/05/16 08:55:41;;;;;;;1.45;0.68;;;;;;;23.68;30.26;100367.31;31319501;28;19927;-75
2022/05/16 09:10:55;;;;;;;1.63;0.50;;;;;;;24.41;30.71;100376.38;31321692;28;20050;-76
2022/05/16 09:26:11;;;;;;;1.10;0.63;;;;;;;24.02;29.14;100363.31;31343542;28;20040;-73
2022/05/16 09:41:33;;;;;;;0.85;0.65;;;;;;;23.85;29.05;100348.69;31334596;28;20099;-70
2022/05/16 09:56:35;;;;;;;1.02;0.50;;;;;;;23.57;29.39;100361.78;31235259;28;20164;-71
2022/05/16 10:11:38;;;;;;;1.97;0.97;;;;;;;23.75;28.44;100344.66;31184558;28;20059;-70
2022/05/16 10:26:48;;;;;;;0.40;0.30;;;;;;;24.44;29.10;100322.66;31193049;28;20050;-72
2022/05/16 10:42:24;;;;;;;1.98;0.70;;;;;;;23.63;29.13;100316.16;31177784;28;20057;-71
2022/05/16 10:57:53;;;;;;;0.98;0.77;;;;;;;23.75;27.32;100322.47;31174868;28;20553;-70
2022/05/16 11:13:26;;;;;;;0.57;0.30;;;;;;;24.37;27.59;100331.50;31219895;28;20056;-70
2022/05/16 11:29:16;;;;;;;1.25;0.70;;;;;;;24.06;29.38;100318.69;31215859;28;20046;-71
2022/05/16 11:44:32;;;;;;;1.77;0.50;;;;;;;22.52;29.30;100327.66;31212853;28;20060;-69
2022/05/16 12:15:29;;;;;;;0.88;0.50;;;;;;;21.73;30.95;100292.44;31209001;28;20057;-70
2022/05/16 12:30:31;;;;;;;1.30;0.68;;;;;;;22.26;31.36;100288.28;31229632;28;20525;-69
2022/05/16 12:46:10;;;;;;;2.23;0.77;;;;;;;21.37;32.02;100278.06;31207864;28;20671;-70
2022/05/16 13:01:30;;;;;;;0.95;0.52;;;;;;;21.56;31.76;100261.16;31339777;28;20063;-69
2022/05/16 13:16:52;;;;;;;0.82;0.40;;;;;;;21.71;30.89;100256.25;31324810;28;20076;-78
2022/05/16 13:31:55;;;;;;;1.67;0.38;;;;;;;21.33;31.30;100249.16;31339738;28;20096;-72
2022/05/16 13:47:01;;;;;;;0.73;0.40;;;;;;;20.94;31.23;100257.78;31324379;28;20049;-71
2022/05/16 14:02:09;;;;;;;9.63;5.57;;;;;;;20.91;31.13;100244.22;31326470;28;20557;-76
2022/05/16 14:17:32;;;;;;;6.85;1.30;;;;;;;20.53;32.10;100242.53;31318413;28;20506;-75
2022/05/16 14:32:36;;;;;;;1.58;1.20;;;;;;;20.54;32.43;100241.31;31326062;28;20055;-74
2022/05/16 14:47:41;;;;;;;2.45;0.80;;;;;;;20.55;31.95;100224.25;31344702;28;20132;-75
2022/05/16 15:18:03;;;;;;;1.70;0.70;;;;;;;20.37;33.17;100200.47;31352377;28;20041;-76
2022/05/16 15:33:07;;;;;;;7.20;1.13;;;;;;;20.22;33.29;100190.75;31328351;28;20053;-77
2022/05/16 15:48:12;;;;;;;;;;;;;;;19.87;32.76;100190.78;31294818;28;1180071;-74
2022/05/16 16:18:57;;;;;;;1.30;0.77;;;;;;;19.47;34.38;100185.91;31337495;28;20494;-73
2022/05/16 16:33:58;;;;;;;1.27;0.82;;;;;;;19.22;35.15;100182.53;31359416;28;20052;-72
2022/05/16 16:49:01;;;;;;;3.78;1.17;;;;;;;18.93;35.61;100177.00;31364125;28;20779;-73
2022/05/16 17:04:03;;;;;;;3.47;1.00;;;;;;;18.62;36.63;100175.50;31339068;28;20053;-72
2022/05/16 17:19:07;;;;;;;2.65;1.27;;;;;;;18.54;37.63;100179.78;31336655;28;20075;-72
2022/05/16 17:34:10;;;;;;;2.00;1.15;;;;;;;18.48;37.72;100192.66;31341610;28;20053;-74
2022/05/16 17:49:12;;;;;;;2.90;1.30;;;;;;;18.36;37.81;100197.19;31349015;28;20049;-85
2022/05/16 18:04:16;;;;;;;2.75;1.00;;;;;;;18.16;38.35;100204.50;31338981;28;20051;-71
2022/05/16 18:19:22;;;;;;;3.23;1.20;;;;;;;17.92;39.23;100208.00;31332587;28;20053;-75
2022/05/16 18:34:24;;;;;;;3.17;1.20;;;;;;;17.78;39.99;100219.66;31313812;28;20303;-76
2022/05/16 19:04:47;;;;;;;22.27;12.40;;;;;;;17.32;42.24;100211.56;31336384;28;20161;-74
2022/05/16 19:19:49;;;;;;;5.55;3.00;;;;;;;17.08;43.74;100218.16;31324516;28;20055;-74
2022/05/16 19:34:53;;;;;;;1.88;1.13;;;;;;;16.85;44.99;100225.03;31331843;28;20067;-73
2022/05/16 19:49:56;;;;;;;13.37;9.27;;;;;;;16.51;46.70;100215.91;31318632;28;20048;-74
2022/05/16 20:04:58;;;;;;;7.60;4.80;;;;;;;16.31;47.89;100216.31;31355078;28;20451;-74
2022/05/16 20:20:00;;;;;;;12.73;3.83;;;;;;;16.16;49.08;100200.94;31351482;28;20068;-74
2022/05/16 20:35:03;;;;;;;11.65;5.30;;;;;;;16.08;49.54;100199.69;31356311;28;20052;-72
2022/05/16 20:50:07;;;;;;;4.88;1.98;;;;;;;16.22;49.73;100208.09;31335654;28;20122;-74
2022/05/16 21:05:11;;;;;;;6.73;1.37;;;;;;;16.25;49.57;100209.16;31351584;28;20059;-72
2022/05/16 21:20:14;;;;;;;1.53;1.00;;;;;;;16.39;48.14;100197.59;31340431;28;20144;-74
2022/05/16 21:35:17;;;;;;;1.80;0.68;;;;;;;16.57;47.30;100205.06;31357793;28;20794;-74
2022/05/16 21:50:23;;;;;;;5.00;1.00;;;;;;;16.53;46.79;100188.03;31356801;28;20050;-74
2022/05/16 22:05:27;;;;;;;0.95;0.70;;;;;;;16.37;46.99;100184.38;31329644;28;20314;-74
2022/05/16 22:20:29;;;;;;;5.87;0.83;;;;;;;16.23;47.27;100184.22;31326483;28;20045;-74
2022/05/16 22:35:31;;;;;;;3.10;1.00;;;;;;;16.00;48.17;100164.41;31329849;28;20060;-72
2022/05/16 22:50:34;;;;;;;5.03;1.33;;;;;;;15.60;49.45;100156.22;31327850;28;20043;-73
2022/05/16 23:05:36;;;;;;;2.40;0.80;;;;;;;15.42;50.67;100149.88;31351718;28;20052;-72
2022/05/16 23:20:38;;;;;;;3.03;0.87;;;;;;;15.17;52.27;100161.78;31337790;28;20047;-73
2022/05/16 23:36:12;;;;;;;2.73;0.80;;;;;;;15.13;52.03;100159.16;31329449;28;20525;-74
2022/05/16 23:51:04;;;;;;;1.10;0.63;;;;;;;14.98;52.42;100158.19;31340558;28;20139;-74
